createdAt,value
2017-10-30T00:02:15.224Z,100955.09
2017-10-30T00:04:42.634Z,100963.34
2017-10-30T00:07:10.020Z,100964.48
2017-10-30T00:09:37.411Z,100966.05
2017-10-30T00:12:04.811Z,100969.02
2017-10-30T00:14:32.248Z,100971.59
2017-10-30T00:16:59.649Z,100963.95
2017-10-30T00:19:27.034Z,100970.16
2017-10-30T00:21:54.504Z,100968.46
2017-10-30T00:24:21.891Z,100976.19
2017-10-30T00:26:49.311Z,100974.22
2017-10-30T00:29:16.770Z,100980.09
2017-10-30T00:31:44.226Z,100973.23
2017-10-30T00:34:11.678Z,100971.52
2017-10-30T00:36:39.074Z,100974.89
2017-10-30T00:39:06.492Z,100986.48
2017-10-30T00:41:33.951Z,100984.75
2017-10-30T00:44:01.347Z,100987.00
2017-10-30T00:46:28.762Z,100986.90
2017-10-30T00:48:56.214Z,100999.05
2017-10-30T00:51:23.675Z,101006.95
2017-10-30T00:53:51.139Z,100991.62
2017-10-30T00:56:18.547Z,100989.33
2017-10-30T00:58:45.926Z,100988.17
2017-10-30T01:01:13.334Z,100976.84
2017-10-30T01:03:40.723Z,100985.16
2017-10-30T01:06:08.110Z,100985.27
2017-10-30T01:08:35.509Z,101000.88
2017-10-30T01:11:03.041Z,100998.16
2017-10-30T01:13:30.697Z,101004.65
2017-10-30T01:15:58.248Z,101013.66
2017-10-30T01:18:25.793Z,101002.10
2017-10-30T01:20:53.444Z,100994.70
2017-10-30T01:23:20.931Z,101004.55
2017-10-30T01:25:48.457Z,101022.43
2017-10-30T01:28:16.118Z,101039.12
2017-10-30T01:30:43.678Z,101043.30
2017-10-30T01:33:11.314Z,101049.31
2017-10-30T01:35:38.842Z,101050.11
2017-10-30T01:38:06.449Z,101043.14
2017-10-30T01:40:34.133Z,101044.58
2017-10-30T01:43:01.563Z,101032.48
2017-10-30T01:45:29.103Z,101036.38
2017-10-30T01:47:56.667Z,101041.94
2017-10-30T01:50:24.301Z,101042.02
2017-10-30T01:52:51.832Z,101049.22
2017-10-30T01:55:19.451Z,101052.14
2017-10-30T01:57:47.004Z,101046.13
2017-10-30T02:00:14.585Z,101048.00
2017-10-30T02:02:41.990Z,101042.14
2017-10-30T02:05:09.590Z,101044.95
2017-10-30T02:07:37.221Z,101047.30
2017-10-30T02:10:04.833Z,101054.39
2017-10-30T02:12:32.323Z,101051.39
2017-10-30T02:14:59.900Z,101051.16
2017-10-30T02:17:27.482Z,101051.16
2017-10-30T02:19:55.086Z,101055.92
2017-10-30T02:22:22.615Z,101049.30
2017-10-30T02:24:50.091Z,101054.05
2017-10-30T02:27:17.532Z,101063.73
2017-10-30T02:29:45.122Z,101058.03
2017-10-30T02:32:12.699Z,101056.00
2017-10-30T02:34:40.139Z,101060.33
2017-10-30T02:37:07.682Z,101059.86
2017-10-30T02:39:35.256Z,101056.02
2017-10-30T02:42:02.770Z,101060.48
2017-10-30T02:44:30.272Z,101056.42
2017-10-30T02:46:57.905Z,101056.66
2017-10-30T02:49:25.370Z,101066.80
2017-10-30T02:51:52.776Z,101074.55
2017-10-30T02:54:20.161Z,101075.34
2017-10-30T02:56:47.767Z,101073.24
2017-10-30T02:59:15.399Z,101063.91
2017-10-30T03:01:42.982Z,101075.61
2017-10-30T03:04:10.540Z,101077.39
2017-10-30T03:06:39.114Z,101084.63
2017-10-30T03:09:06.589Z,101095.13
2017-10-30T03:11:34.152Z,101091.86
2017-10-30T03:14:01.708Z,101092.48
2017-10-30T03:16:29.215Z,101091.58
2017-10-30T03:18:56.770Z,101096.98
2017-10-30T03:21:24.419Z,101091.14
2017-10-30T03:23:51.990Z,101100.92
2017-10-30T03:26:19.528Z,101106.81
2017-10-30T03:28:47.149Z,101114.91
2017-10-30T03:31:14.767Z,101123.05
2017-10-30T03:33:42.171Z,101122.77
2017-10-30T03:36:09.746Z,101131.92
2017-10-30T03:38:37.154Z,101132.53
2017-10-30T03:41:04.691Z,101143.40
2017-10-30T03:43:32.175Z,101152.94
2017-10-30T03:45:59.696Z,101161.48
2017-10-30T03:48:27.218Z,101166.41
2017-10-30T03:50:54.785Z,101163.40
2017-10-30T03:53:22.186Z,101164.84
2017-10-30T03:55:49.666Z,101171.99
2017-10-30T03:58:17.055Z,101173.55
2017-10-30T04:00:44.470Z,101171.02
2017-10-30T04:03:11.935Z,101184.58
2017-10-30T04:05:39.319Z,101184.75
2017-10-30T04:08:06.744Z,101182.42
2017-10-30T04:10:34.216Z,101191.58
2017-10-30T04:13:01.599Z,101196.10
2017-10-30T04:15:29.002Z,101196.91
2017-10-30T04:17:56.403Z,101201.62
2017-10-30T04:20:23.787Z,101194.42
2017-10-30T04:22:51.195Z,101196.97
2017-10-30T04:25:18.630Z,101198.70
2017-10-30T04:27:46.079Z,101201.16
2017-10-30T04:30:13.546Z,101204.73
2017-10-30T04:32:40.939Z,101202.64
2017-10-30T04:35:08.355Z,101203.50
2017-10-30T04:37:35.750Z,101208.69
2017-10-30T04:40:03.144Z,101202.26
2017-10-30T04:42:30.539Z,101206.89
2017-10-30T04:44:57.984Z,101202.69
2017-10-30T04:47:25.375Z,101205.58
2017-10-30T04:49:52.867Z,101201.48
2017-10-30T04:52:20.342Z,101208.36
2017-10-30T04:54:47.734Z,101219.05
2017-10-30T04:57:15.138Z,101223.45
2017-10-30T04:59:42.526Z,101221.36
2017-10-30T05:02:09.925Z,101230.70
2017-10-30T05:04:37.314Z,101229.63
2017-10-30T05:07:04.775Z,101235.05
2017-10-30T05:09:32.163Z,101242.27
2017-10-30T05:11:59.550Z,101243.17
2017-10-30T05:14:26.949Z,101244.34
2017-10-30T05:16:54.335Z,101243.70
2017-10-30T05:19:21.726Z,101248.34
2017-10-30T05:21:49.204Z,101261.72
2017-10-30T05:24:16.614Z,101261.94
2017-10-30T05:26:43.999Z,101268.81
2017-10-30T05:29:11.407Z,101265.35
2017-10-30T05:31:38.827Z,101271.09
2017-10-30T05:34:06.278Z,101271.88
2017-10-30T05:36:33.738Z,101270.77
2017-10-30T05:39:01.202Z,101267.87
2017-10-30T05:41:28.594Z,101266.06
2017-10-30T05:43:56.004Z,101276.28
2017-10-30T05:46:23.427Z,101279.33
2017-10-30T05:48:50.818Z,101282.95
2017-10-30T05:51:18.202Z,101287.67
2017-10-30T05:53:45.642Z,101290.37
2017-10-30T05:56:13.088Z,101287.30
2017-10-30T05:58:40.530Z,101289.54
2017-10-30T06:01:07.999Z,101292.42
2017-10-30T06:03:35.442Z,101296.53
2017-10-30T06:06:02.908Z,101301.16
2017-10-30T06:08:30.290Z,101304.82
2017-10-30T06:10:57.693Z,101313.91
2017-10-30T06:13:25.062Z,101320.29
2017-10-30T06:15:52.461Z,101322.34
2017-10-30T06:18:19.838Z,101330.92
2017-10-30T06:20:47.339Z,101336.16
2017-10-30T06:23:14.717Z,101343.11
2017-10-30T06:25:42.130Z,101346.62
2017-10-30T06:28:09.517Z,101356.53
2017-10-30T06:30:36.911Z,101360.16
2017-10-30T06:33:04.311Z,101362.91
2017-10-30T06:35:31.707Z,101366.28
2017-10-30T06:37:59.108Z,101369.63
2017-10-30T06:40:26.495Z,101381.05
2017-10-30T06:42:53.896Z,101380.27
2017-10-30T06:45:21.287Z,101381.52
2017-10-30T06:47:48.682Z,101388.50
2017-10-30T06:50:16.058Z,101388.14
2017-10-30T06:52:43.457Z,101397.36
2017-10-30T06:55:10.843Z,101410.30
2017-10-30T06:57:38.231Z,101411.61
2017-10-30T07:00:05.614Z,101414.34
2017-10-30T07:02:33.004Z,101418.20
2017-10-30T07:05:00.426Z,101420.30
2017-10-30T07:07:27.885Z,101415.73
2017-10-30T07:09:55.272Z,101418.02
2017-10-30T07:12:22.692Z,101419.79
2017-10-30T07:14:50.083Z,101415.00
2017-10-30T07:17:17.475Z,101424.27
2017-10-30T07:19:44.859Z,101427.27
2017-10-30T07:22:12.246Z,101439.80
2017-10-30T07:24:39.662Z,101437.98
2017-10-30T07:27:07.130Z,101437.62
2017-10-30T07:29:34.597Z,101439.23
2017-10-30T07:32:02.000Z,101443.23
2017-10-30T07:34:29.395Z,101439.21
2017-10-30T07:36:56.857Z,101444.70
2017-10-30T07:39:24.250Z,101451.14
2017-10-30T07:41:51.658Z,101453.00
2017-10-30T07:44:19.058Z,101453.71
2017-10-30T07:46:46.463Z,101450.09
2017-10-30T07:49:13.845Z,101457.69
2017-10-30T07:51:41.236Z,101468.30
2017-10-30T07:54:08.622Z,101477.30
2017-10-30T07:56:36.018Z,101478.36
2017-10-30T07:59:03.403Z,101487.31
2017-10-30T08:01:30.784Z,101488.53
2017-10-30T08:03:58.174Z,101500.69
2017-10-30T08:06:25.558Z,101495.74
2017-10-30T08:08:52.952Z,101492.23
2017-10-30T08:11:20.423Z,101492.71
2017-10-30T08:13:47.858Z,101490.66
2017-10-30T08:16:15.336Z,101493.12
2017-10-30T08:18:42.787Z,101500.66
2017-10-30T08:21:10.170Z,101503.95
2017-10-30T08:23:37.606Z,101508.52
2017-10-30T08:26:05.011Z,101508.78
2017-10-30T08:28:32.395Z,101507.70
2017-10-30T08:30:59.870Z,101514.04
2017-10-30T08:33:27.243Z,101503.69
2017-10-30T08:35:54.678Z,101511.40
2017-10-30T08:38:22.062Z,101513.20
2017-10-30T08:40:49.459Z,101511.73
2017-10-30T08:43:16.847Z,101525.48
2017-10-30T08:45:44.306Z,101529.53
2017-10-30T08:48:11.694Z,101520.61
2017-10-30T08:50:39.090Z,101535.86
2017-10-30T08:53:06.575Z,101538.84
2017-10-30T08:55:33.967Z,101535.89
2017-10-30T08:58:01.386Z,101537.50
2017-10-30T09:00:29.030Z,101538.91
2017-10-30T09:02:56.488Z,101543.59
2017-10-30T09:05:23.911Z,101553.70
2017-10-30T09:07:51.312Z,101554.99
2017-10-30T09:10:18.771Z,101545.64
2017-10-30T09:12:46.170Z,101546.26
2017-10-30T09:15:13.578Z,101549.05
2017-10-30T09:17:40.963Z,101543.91
2017-10-30T09:20:08.353Z,101551.14
2017-10-30T09:22:35.846Z,101565.47
2017-10-30T09:25:03.249Z,101564.92
2017-10-30T09:27:30.642Z,101565.22
2017-10-30T09:29:58.026Z,101567.03
2017-10-30T09:32:25.422Z,101574.14
2017-10-30T09:34:52.827Z,101574.20
2017-10-30T09:37:20.304Z,101577.14
2017-10-30T09:39:47.688Z,101578.36
2017-10-30T09:42:15.079Z,101581.00
2017-10-30T09:44:42.470Z,101582.02
2017-10-30T09:47:09.858Z,101585.89
2017-10-30T09:49:37.266Z,101581.61
2017-10-30T09:52:04.659Z,101584.15
2017-10-30T09:54:32.070Z,101589.11
2017-10-30T09:56:59.527Z,101587.41
2017-10-30T09:59:26.928Z,101593.01
2017-10-30T10:04:21.082Z,101596.76
2017-10-30T10:06:48.558Z,101602.85
2017-10-30T10:09:15.917Z,101606.25
2017-10-30T10:11:43.347Z,101610.75
2017-10-30T10:14:10.732Z,101604.73
2017-10-30T10:16:38.115Z,101606.34
2017-10-30T10:19:05.515Z,101612.14
2017-10-30T10:21:32.982Z,101618.63
2017-10-30T10:24:00.370Z,101615.58
2017-10-30T10:26:27.783Z,101612.42
2017-10-30T10:28:55.179Z,101615.44
2017-10-30T10:31:22.562Z,101618.38
2017-10-30T10:33:49.957Z,101621.31
2017-10-30T10:36:17.343Z,101624.98
2017-10-30T10:38:44.749Z,101618.80
2017-10-30T10:41:12.132Z,101617.52
2017-10-30T10:43:39.528Z,101624.08
2017-10-30T10:46:06.910Z,101624.61
2017-10-30T10:48:34.295Z,101621.97
2017-10-30T10:51:01.679Z,101618.84
2017-10-30T10:53:29.095Z,101622.06
2017-10-30T10:55:56.507Z,101623.34
2017-10-30T10:58:23.894Z,101617.58
2017-10-30T11:00:51.290Z,101620.30
2017-10-30T11:03:18.722Z,101623.03
2017-10-30T11:05:46.107Z,101617.05
2017-10-30T11:08:13.527Z,101626.41
2017-10-30T11:10:40.992Z,101621.23
2017-10-30T11:13:08.465Z,101626.00
2017-10-30T11:15:35.855Z,101629.50
2017-10-30T11:18:03.234Z,101628.03
2017-10-30T11:20:30.630Z,101632.31
2017-10-30T11:22:58.014Z,101628.73
2017-10-30T11:25:25.403Z,101624.39
2017-10-30T11:27:52.790Z,101622.56
2017-10-30T11:30:20.199Z,101614.44
2017-10-30T11:32:47.604Z,101617.13
2017-10-30T11:35:14.990Z,101616.34
2017-10-30T11:37:42.400Z,101617.70
2017-10-30T11:40:09.797Z,101619.94
2017-10-30T11:42:37.170Z,101617.44
2017-10-30T11:45:04.563Z,101622.23
2017-10-30T11:47:31.953Z,101622.92
2017-10-30T11:49:59.347Z,101614.50
2017-10-30T11:52:26.740Z,101614.46
2017-10-30T11:54:54.191Z,101615.48
2017-10-30T11:57:21.622Z,101627.41
2017-10-30T11:59:49.103Z,101620.86
2017-10-30T12:02:16.500Z,101619.50
2017-10-30T12:04:43.910Z,101621.73
2017-10-30T12:07:11.470Z,101624.99
2017-10-30T12:09:38.930Z,101622.16
2017-10-30T12:12:06.316Z,101618.20
2017-10-30T12:14:33.713Z,101614.48
2017-10-30T12:17:01.206Z,101618.91
2017-10-30T12:19:28.646Z,101621.34
2017-10-30T12:21:56.031Z,101624.16
2017-10-30T12:24:23.443Z,101620.17
2017-10-30T12:26:50.839Z,101614.55
2017-10-30T12:29:18.214Z,101620.50
2017-10-30T12:31:45.624Z,101619.34
2017-10-30T12:34:13.009Z,101627.70
2017-10-30T12:36:40.439Z,101627.41
2017-10-30T12:39:07.830Z,101630.20
2017-10-30T12:41:35.226Z,101623.66
2017-10-30T12:44:02.676Z,101624.61
2017-10-30T12:46:30.163Z,101628.42
2017-10-30T12:48:57.542Z,101623.30
2017-10-30T12:51:24.946Z,101622.91
2017-10-30T12:53:52.336Z,101620.91
2017-10-30T12:56:19.751Z,101619.14
2017-10-30T12:58:47.125Z,101628.63
2017-10-30T13:01:14.609Z,101629.15
2017-10-30T13:03:41.990Z,101636.96
2017-10-30T13:06:09.382Z,101643.78
2017-10-30T13:08:36.766Z,101641.16
2017-10-30T13:11:04.227Z,101639.14
2017-10-30T13:13:31.610Z,101648.88
2017-10-30T13:15:58.999Z,101639.98
2017-10-30T13:18:26.415Z,101639.93
2017-10-30T13:20:53.868Z,101642.52
2017-10-30T13:23:21.242Z,101641.30
2017-10-30T13:25:48.640Z,101649.97
2017-10-30T13:28:16.028Z,101647.63
2017-10-30T13:30:43.429Z,101645.94
2017-10-30T13:33:10.931Z,101639.61
2017-10-30T13:35:38.323Z,101642.66
2017-10-30T13:38:05.734Z,101642.38
2017-10-30T13:40:33.124Z,101641.62
2017-10-30T13:43:00.551Z,101637.50
2017-10-30T13:45:27.934Z,101639.59
2017-10-30T13:47:55.330Z,101639.92
2017-10-30T13:50:22.940Z,101635.36
2017-10-30T13:52:50.326Z,101640.55
2017-10-30T13:55:17.715Z,101648.13
2017-10-30T13:57:45.191Z,101637.31
2017-10-30T14:00:12.610Z,101647.39
2017-10-30T14:02:40.102Z,101654.91
2017-10-30T14:05:07.567Z,101656.10
2017-10-30T14:07:35.018Z,101659.20
2017-10-30T14:10:02.408Z,101663.69
2017-10-30T14:12:29.797Z,101667.34
2017-10-30T14:14:57.218Z,101680.87
2017-10-30T14:17:24.638Z,101694.12
2017-10-30T14:19:52.093Z,101707.11
2017-10-30T14:22:19.565Z,101703.33
2017-10-30T14:24:47.011Z,101703.78
2017-10-30T14:27:14.395Z,101694.67
2017-10-30T14:29:41.835Z,101697.27
2017-10-30T14:32:09.285Z,101702.46
2017-10-30T14:34:36.741Z,101692.67
2017-10-30T14:37:04.208Z,101692.92
2017-10-30T14:39:31.594Z,101692.25
2017-10-30T14:41:59.006Z,101690.45
2017-10-30T14:44:26.474Z,101691.60
2017-10-30T14:46:53.922Z,101696.02
2017-10-30T14:49:21.311Z,101694.19
2017-10-30T14:51:48.706Z,101685.48
2017-10-30T14:54:16.184Z,101691.54
2017-10-30T14:56:43.567Z,101690.92
2017-10-30T14:59:11.211Z,101696.69
2017-10-30T15:01:38.601Z,101702.30
2017-10-30T15:04:05.982Z,101697.00
2017-10-30T15:06:33.477Z,101695.68
2017-10-30T15:09:00.867Z,101696.05
2017-10-30T15:11:28.253Z,101692.84
2017-10-30T15:13:55.638Z,101687.97
2017-10-30T15:16:23.022Z,101688.34
2017-10-30T15:18:50.406Z,101686.21
2017-10-30T15:21:17.799Z,101693.83
2017-10-30T15:23:45.243Z,101697.22
2017-10-30T15:26:12.630Z,101699.73
2017-10-30T15:28:40.039Z,101695.51
2017-10-30T15:31:07.442Z,101705.17
2017-10-30T15:33:34.831Z,101710.30
2017-10-30T15:36:02.226Z,101714.95
2017-10-30T15:38:29.607Z,101716.01
2017-10-30T15:40:57.003Z,101709.62
2017-10-30T15:43:24.462Z,101703.41
2017-10-30T15:45:51.872Z,101708.16
2017-10-30T15:48:19.252Z,101707.63
2017-10-30T15:50:46.639Z,101713.30
2017-10-30T15:53:14.030Z,101705.14
2017-10-30T15:55:41.409Z,101712.07
2017-10-30T15:58:08.812Z,101719.80
2017-10-30T16:00:36.199Z,101714.71
2017-10-30T16:03:03.626Z,101713.39
2017-10-30T16:05:30.983Z,101713.62
2017-10-30T16:07:58.373Z,101715.56
2017-10-30T16:10:25.762Z,101713.62
2017-10-30T16:12:53.235Z,101718.42
2017-10-30T16:15:20.623Z,101717.47
2017-10-30T16:17:48.007Z,101719.96
2017-10-30T16:20:15.430Z,101726.41
2017-10-30T16:22:42.846Z,101723.48
2017-10-30T16:25:10.298Z,101716.69
2017-10-30T16:27:37.686Z,101717.64
2017-10-30T16:30:05.074Z,101727.48
2017-10-30T16:32:32.465Z,101736.87
2017-10-30T16:34:59.847Z,101740.45
2017-10-30T16:37:27.238Z,101739.39
2017-10-30T16:39:54.620Z,101750.27
2017-10-30T16:42:22.115Z,101750.02
2017-10-30T16:44:49.550Z,101755.37
2017-10-30T16:47:16.946Z,101764.95
2017-10-30T16:49:44.327Z,101765.08
2017-10-30T16:52:11.714Z,101755.88
2017-10-30T16:54:39.108Z,101756.61
2017-10-30T16:57:06.495Z,101763.06
2017-10-30T16:59:33.874Z,101762.27
2017-10-30T17:02:01.333Z,101768.05
2017-10-30T17:04:28.709Z,101769.20
2017-10-30T17:06:56.096Z,101761.83
2017-10-30T17:11:50.238Z,101767.12
2017-10-30T17:14:17.625Z,101764.63
2017-10-30T17:16:45.023Z,101764.85
2017-10-30T17:19:12.481Z,101759.58
2017-10-30T17:21:39.934Z,101759.28
2017-10-30T17:24:14.230Z,101766.25
2017-10-30T17:26:41.603Z,101772.72
2017-10-30T17:29:08.987Z,101771.66
2017-10-30T17:31:36.379Z,101773.80
2017-10-30T17:34:03.759Z,101782.37
2017-10-30T17:36:31.142Z,101784.07
2017-10-30T17:38:58.590Z,101784.11
2017-10-30T17:41:25.974Z,101791.61
2017-10-30T17:43:53.366Z,101789.84
2017-10-30T17:46:20.866Z,101787.63
2017-10-30T17:48:48.247Z,101791.23
2017-10-30T17:51:15.662Z,101794.45
2017-10-30T17:53:43.063Z,101801.97
2017-10-30T17:56:10.446Z,101801.11
2017-10-30T17:58:37.839Z,101803.41
2017-10-30T18:01:05.220Z,101808.28
2017-10-30T18:03:32.608Z,101801.89
2017-10-30T18:06:00.958Z,101807.11
2017-10-30T18:08:28.343Z,101803.69
2017-10-30T18:10:55.723Z,101806.73
2017-10-30T18:13:23.116Z,101806.13
2017-10-30T18:15:50.494Z,101799.63
2017-10-30T18:18:17.879Z,101802.61
2017-10-30T18:20:45.344Z,101803.23
2017-10-30T18:23:12.728Z,101808.95
2017-10-30T18:25:40.166Z,101811.12
2017-10-30T18:28:07.555Z,101808.45
2017-10-30T18:30:34.946Z,101816.42
2017-10-30T18:33:02.334Z,101816.03
2017-10-30T18:35:29.723Z,101817.94
2017-10-30T18:37:57.100Z,101817.56
2017-10-30T18:40:24.576Z,101822.45
2017-10-30T18:42:51.998Z,101823.44
2017-10-30T18:45:19.450Z,101824.50
2017-10-30T18:47:46.918Z,101825.00
2017-10-30T18:50:14.306Z,101827.77
2017-10-30T18:52:41.726Z,101827.08
2017-10-30T18:55:09.187Z,101833.34
2017-10-30T18:57:36.639Z,101830.71
2017-10-30T19:00:04.075Z,101839.98
2017-10-30T19:02:31.541Z,101832.97
2017-10-30T19:04:58.942Z,101830.37
2017-10-30T19:07:26.362Z,101826.12
2017-10-30T19:09:53.762Z,101825.98
2017-10-30T19:12:21.147Z,101833.23
2017-10-30T19:14:48.632Z,101838.80
2017-10-30T19:17:16.104Z,101837.31
2017-10-30T19:19:43.481Z,101846.59
2017-10-30T19:22:10.917Z,101842.32
2017-10-30T19:24:38.286Z,101845.68
2017-10-30T19:27:05.675Z,101843.70
2017-10-30T19:29:33.154Z,101843.31
2017-10-30T19:32:00.546Z,101842.26
2017-10-30T19:34:27.970Z,101843.94
2017-10-30T19:36:55.433Z,101850.52
2017-10-30T19:39:22.819Z,101845.37
2017-10-30T19:41:50.209Z,101845.25
2017-10-30T19:44:17.591Z,101838.59
2017-10-30T19:46:45.014Z,101848.51
2017-10-30T19:49:12.395Z,101844.70
2017-10-30T19:51:39.863Z,101850.34
2017-10-30T19:54:07.254Z,101837.83
2017-10-30T19:56:34.646Z,101844.66
2017-10-30T19:59:02.137Z,101844.50
2017-10-30T20:01:29.609Z,101841.66
2017-10-30T20:03:56.974Z,101842.62
2017-10-30T20:06:30.074Z,101841.14
2017-10-30T20:09:03.128Z,101843.44
2017-10-30T20:11:36.231Z,101842.19
2017-10-30T20:14:03.631Z,101842.50
2017-10-30T20:16:31.126Z,101845.62
2017-10-30T20:18:58.518Z,101851.84
2017-10-30T20:21:25.907Z,101855.12
2017-10-30T20:23:53.296Z,101851.00
2017-10-30T20:26:20.750Z,101850.53
2017-10-30T20:28:48.202Z,101850.83
2017-10-30T20:31:15.609Z,101848.97
2017-10-30T20:33:43.011Z,101854.67
2017-10-30T20:36:10.406Z,101857.00
2017-10-30T20:38:37.810Z,101852.11
2017-10-30T20:41:05.204Z,101852.73
2017-10-30T20:43:32.597Z,101845.99
2017-10-30T20:45:59.978Z,101852.80
2017-10-30T20:48:27.369Z,101858.23
2017-10-30T20:50:54.760Z,101850.69
2017-10-30T20:53:22.250Z,101861.56
2017-10-30T20:55:49.635Z,101862.42
2017-10-30T20:58:17.027Z,101870.91
2017-10-30T21:00:44.425Z,101869.55
2017-10-30T21:03:11.802Z,101877.18
2017-10-30T21:05:39.238Z,101882.76
2017-10-30T21:08:06.694Z,101881.24
2017-10-30T21:10:34.088Z,101874.38
2017-10-30T21:13:01.470Z,101875.48
2017-10-30T21:15:28.850Z,101869.05
2017-10-30T21:17:56.315Z,101864.14
2017-10-30T21:20:23.698Z,101851.61
2017-10-30T21:22:51.106Z,101855.33
2017-10-30T21:25:18.592Z,101859.05
2017-10-30T21:27:46.030Z,101862.50
2017-10-30T21:30:13.411Z,101858.58
2017-10-30T21:32:40.843Z,101860.44
2017-10-30T21:35:08.243Z,101852.34
2017-10-30T21:37:35.654Z,101850.48
2017-10-30T21:40:03.127Z,101854.36
2017-10-30T21:42:30.577Z,101850.91
2017-10-30T21:44:57.962Z,101854.75
2017-10-30T21:47:25.374Z,101864.20
2017-10-30T21:49:52.854Z,101861.27
2017-10-30T21:52:20.334Z,101856.80
2017-10-30T21:54:47.798Z,101861.84
2017-10-30T21:57:15.195Z,101851.58
2017-10-30T21:59:42.662Z,101844.83
2017-10-30T22:02:10.118Z,101847.12
2017-10-30T22:04:37.589Z,101841.48
2017-10-30T22:07:04.966Z,101837.69
2017-10-30T22:09:32.354Z,101848.83
2017-10-30T22:11:59.738Z,101839.87
2017-10-30T22:14:27.142Z,101835.95
2017-10-30T22:16:54.547Z,101829.22
2017-10-30T22:19:22.006Z,101827.86
2017-10-30T22:21:49.394Z,101830.57
2017-10-30T22:24:16.802Z,101829.37
2017-10-30T22:26:44.182Z,101825.59
2017-10-30T22:29:11.649Z,101826.88
2017-10-30T22:31:39.127Z,101829.17
2017-10-30T22:34:06.573Z,101821.89
2017-10-30T22:36:33.994Z,101819.52
2017-10-30T22:39:01.385Z,101820.00
2017-10-30T22:41:28.779Z,101824.25
2017-10-30T22:43:56.272Z,101827.53
2017-10-30T22:46:23.675Z,101827.73
2017-10-30T22:48:51.063Z,101831.95
2017-10-30T22:51:18.522Z,101839.34
2017-10-30T22:53:45.908Z,101837.69
2017-10-30T22:56:13.338Z,101835.67
2017-10-30T22:58:40.798Z,101841.41
2017-10-30T23:01:08.199Z,101840.72
2017-10-30T23:03:35.587Z,101841.44
2017-10-30T23:06:03.094Z,101839.77
2017-10-30T23:08:30.532Z,101840.30
2017-10-30T23:10:57.918Z,101839.09
2017-10-30T23:13:25.366Z,101834.61
2017-10-30T23:15:52.758Z,101839.28
2017-10-30T23:18:20.243Z,101838.45
2017-10-30T23:20:47.633Z,101830.42
2017-10-30T23:23:15.023Z,101834.87
2017-10-30T23:25:42.507Z,101836.92
2017-10-30T23:28:09.966Z,101830.63
2017-10-30T23:30:37.423Z,101836.25
2017-10-30T23:33:04.878Z,101830.64
2017-10-30T23:35:32.323Z,101827.97
2017-10-30T23:37:59.723Z,101825.84
2017-10-30T23:40:27.102Z,101827.28
2017-10-30T23:42:54.602Z,101829.12
2017-10-30T23:45:22.056Z,101831.42
2017-10-30T23:47:49.451Z,101831.92
2017-10-30T23:50:16.848Z,101832.45
2017-10-30T23:52:44.230Z,101835.20
2017-10-30T23:55:11.615Z,101844.78
2017-10-30T23:57:39.007Z,101842.33
